JZR542 VNBW-VNKT
Flight info
| Callsign | JZR542 |
|---|---|
| Flight time | 0h 26m |
| Altitude | 17000 |
| Route | KAKUN DCT NARAN NARAN1D |
| Aircraft | A320/M-SDE3FGHIRWY/LB1 |
Departure
| Time | 2026-04-30 06:58 |
|---|---|
| Airport | Gautam Buddha International Airport (VNBW) |
Arrival
| Time | 2026-04-30 07:24 |
|---|---|
| Airport | Tribhuvan International Airport (VNKT) |
| Time | Latitude | Longitude | Altitude | Speed | Heading |
|---|---|---|---|---|---|
| 2026-04-30 06:38 | 27.50729 | 83.41641 | 363 ft | 0 kts | 9° |
| 2026-04-30 06:51 | 27.50722 | 83.41640 | 355 ft | 3 kts | 7° |
| 2026-04-30 06:51 | 27.50702 | 83.41637 | 363 ft | 3 kts | 13° |
| 2026-04-30 06:51 | 27.50683 | 83.41630 | 362 ft | 3 kts | 19° |
| 2026-04-30 06:51 | 27.50664 | 83.41623 | 358 ft | 3 kts | 18° |
| 2026-04-30 06:52 | 27.50644 | 83.41616 | 359 ft | 3 kts | 20° |
| 2026-04-30 06:52 | 27.50636 | 83.41613 | 357 ft | 0 kts | 24° |
| 2026-04-30 06:53 | 27.50641 | 83.41617 | 358 ft | 3 kts | 38° |
| 2026-04-30 06:53 | 27.50638 | 83.41655 | 359 ft | 8 kts | 100° |
| 2026-04-30 06:54 | 27.50596 | 83.41709 | 358 ft | 13 kts | 172° |
| 2026-04-30 06:54 | 27.50548 | 83.41768 | 358 ft | 13 kts | 100° |
| 2026-04-30 06:54 | 27.50533 | 83.41888 | 356 ft | 18 kts | 99° |
| 2026-04-30 06:54 | 27.50512 | 83.42037 | 358 ft | 21 kts | 99° |
| 2026-04-30 06:55 | 27.50489 | 83.42207 | 356 ft | 23 kts | 98° |
| 2026-04-30 06:55 | 27.50462 | 83.42397 | 355 ft | 26 kts | 99° |
| 2026-04-30 06:55 | 27.50425 | 83.42579 | 359 ft | 16 kts | 134° |
| 2026-04-30 06:55 | 27.50365 | 83.42582 | 359 ft | 9 kts | 186° |
| 2026-04-30 06:56 | 27.50296 | 83.42561 | 360 ft | 10 kts | 215° |
| 2026-04-30 06:56 | 27.50283 | 83.42495 | 354 ft | 8 kts | 278° |
| 2026-04-30 06:56 | 27.50289 | 83.42442 | 357 ft | 6 kts | 278° |
| 2026-04-30 06:56 | 27.50294 | 83.42410 | 355 ft | 10 kts | 278° |
| 2026-04-30 06:57 | 27.50330 | 83.42131 | 361 ft | 72 kts | 278° |
| 2026-04-30 06:57 | 27.50444 | 83.41322 | 362 ft | 135 kts | 278° |
| 2026-04-30 06:57 | 27.50614 | 83.40089 | 393 ft | 178 kts | 278° |
| 2026-04-30 06:57 | 27.50797 | 83.38696 | 943 ft | 183 kts | 276° |
| 2026-04-30 06:58 | 27.50940 | 83.37237 | 1502 ft | 191 kts | 274° |
| 2026-04-30 06:58 | 27.51130 | 83.35792 | 2235 ft | 179 kts | 291° |
| 2026-04-30 06:58 | 27.51801 | 83.34676 | 2835 ft | 174 kts | 324° |
| 2026-04-30 06:58 | 27.52895 | 83.34060 | 3212 ft | 180 kts | 353° |
| 2026-04-30 06:59 | 27.54144 | 83.34118 | 3688 ft | 182 kts | 21° |
| 2026-04-30 06:59 | 27.55228 | 83.34832 | 4172 ft | 182 kts | 50° |
| 2026-04-30 06:59 | 27.55887 | 83.36031 | 4669 ft | 183 kts | 76° |
| 2026-04-30 06:59 | 27.56038 | 83.37456 | 5091 ft | 188 kts | 94° |
| 2026-04-30 07:00 | 27.55980 | 83.38995 | 5404 ft | 204 kts | 93° |
| 2026-04-30 07:00 | 27.55986 | 83.40663 | 5707 ft | 225 kts | 89° |
| 2026-04-30 07:00 | 27.56115 | 83.42512 | 6020 ft | 248 kts | 84° |
| 2026-04-30 07:00 | 27.56386 | 83.44512 | 6499 ft | 266 kts | 81° |
| 2026-04-30 07:01 | 27.56761 | 83.46586 | 7019 ft | 281 kts | 78° |
| 2026-04-30 07:01 | 27.57231 | 83.48778 | 7591 ft | 294 kts | 76° |
| 2026-04-30 07:01 | 27.57758 | 83.51050 | 8249 ft | 302 kts | 77° |
| 2026-04-30 07:01 | 27.58145 | 83.53372 | 9148 ft | 303 kts | 80° |
| 2026-04-30 07:02 | 27.58463 | 83.55733 | 9916 ft | 307 kts | 81° |
| 2026-04-30 07:02 | 27.58816 | 83.58165 | 10314 ft | 326 kts | 79° |
| 2026-04-30 07:02 | 27.59222 | 83.60767 | 10543 ft | 348 kts | 79° |
| 2026-04-30 07:02 | 27.59663 | 83.63505 | 11020 ft | 360 kts | 79° |
| 2026-04-30 07:03 | 27.60135 | 83.66298 | 11672 ft | 365 kts | 78° |
| 2026-04-30 07:03 | 27.60631 | 83.69116 | 12350 ft | 370 kts | 78° |
| 2026-04-30 07:03 | 27.61147 | 83.71975 | 13024 ft | 374 kts | 77° |
| 2026-04-30 07:03 | 27.61678 | 83.74849 | 13677 ft | 378 kts | 77° |
| 2026-04-30 07:04 | 27.62409 | 83.77709 | 14273 ft | 382 kts | 70° |
| 2026-04-30 07:04 | 27.63250 | 83.80563 | 14865 ft | 385 kts | 70° |
| 2026-04-30 07:04 | 27.64092 | 83.83438 | 15481 ft | 388 kts | 71° |
| 2026-04-30 07:04 | 27.64934 | 83.86331 | 16140 ft | 389 kts | 71° |
| 2026-04-30 07:05 | 27.66616 | 83.92142 | 16867 ft | 393 kts | 71° |
| 2026-04-30 07:05 | 27.67464 | 83.95082 | 16912 ft | 395 kts | 71° |
| 2026-04-30 07:05 | 27.68314 | 83.98024 | 16912 ft | 395 kts | 71° |
| 2026-04-30 07:06 | 27.69148 | 84.00974 | 16912 ft | 395 kts | 74° |
| 2026-04-30 07:06 | 27.69623 | 84.04027 | 16913 ft | 396 kts | 85° |
| 2026-04-30 07:06 | 27.69607 | 84.07129 | 16918 ft | 396 kts | 93° |
| 2026-04-30 07:06 | 27.69459 | 84.10233 | 16917 ft | 396 kts | 93° |
| 2026-04-30 07:07 | 27.69314 | 84.13334 | 16918 ft | 396 kts | 93° |
| 2026-04-30 07:07 | 27.69170 | 84.16437 | 16920 ft | 396 kts | 93° |
| 2026-04-30 07:07 | 27.69028 | 84.19540 | 16920 ft | 396 kts | 93° |
| 2026-04-30 07:07 | 27.68888 | 84.22642 | 16931 ft | 396 kts | 93° |
| 2026-04-30 07:08 | 27.68747 | 84.25742 | 16928 ft | 396 kts | 93° |
| 2026-04-30 07:08 | 27.68603 | 84.28847 | 16927 ft | 396 kts | 93° |
| 2026-04-30 07:08 | 27.68455 | 84.31947 | 16927 ft | 396 kts | 93° |
| 2026-04-30 07:08 | 27.68309 | 84.35051 | 16924 ft | 396 kts | 93° |
| 2026-04-30 07:09 | 27.68120 | 84.38151 | 16939 ft | 396 kts | 98° |
| 2026-04-30 07:09 | 27.67484 | 84.41168 | 16938 ft | 395 kts | 110° |
| 2026-04-30 07:09 | 27.66321 | 84.43967 | 16938 ft | 394 kts | 122° |
| 2026-04-30 07:09 | 27.64691 | 84.46436 | 16918 ft | 392 kts | 135° |
| 2026-04-30 07:10 | 27.62746 | 84.48582 | 16922 ft | 392 kts | 138° |
| 2026-04-30 07:10 | 27.60773 | 84.50704 | 16921 ft | 392 kts | 138° |
| 2026-04-30 07:10 | 27.58796 | 84.52829 | 16924 ft | 393 kts | 138° |
| 2026-04-30 07:10 | 27.56815 | 84.54957 | 16926 ft | 393 kts | 138° |
| 2026-04-30 07:11 | 27.54832 | 84.57084 | 16929 ft | 394 kts | 138° |
| 2026-04-30 07:11 | 27.52849 | 84.59213 | 16932 ft | 394 kts | 138° |
| 2026-04-30 07:11 | 27.50867 | 84.61346 | 16934 ft | 394 kts | 138° |
| 2026-04-30 07:11 | 27.48885 | 84.63481 | 16924 ft | 394 kts | 138° |
| 2026-04-30 07:12 | 27.46901 | 84.65615 | 16925 ft | 394 kts | 138° |
| 2026-04-30 07:12 | 27.44916 | 84.67746 | 16952 ft | 394 kts | 139° |
| 2026-04-30 07:12 | 27.42931 | 84.69878 | 16955 ft | 394 kts | 139° |
| 2026-04-30 07:12 | 27.40975 | 84.71980 | 16958 ft | 394 kts | 138° |
| 2026-04-30 07:13 | 27.38993 | 84.74111 | 16957 ft | 394 kts | 139° |
| 2026-04-30 07:13 | 27.37009 | 84.76237 | 16933 ft | 394 kts | 139° |
| 2026-04-30 07:13 | 27.35020 | 84.78366 | 16928 ft | 395 kts | 139° |
| 2026-04-30 07:13 | 27.33031 | 84.80492 | 16925 ft | 395 kts | 139° |
| 2026-04-30 07:14 | 27.31040 | 84.82620 | 16939 ft | 396 kts | 139° |
| 2026-04-30 07:14 | 27.29042 | 84.84756 | 16942 ft | 396 kts | 139° |
| 2026-04-30 07:14 | 27.27016 | 84.86918 | 16945 ft | 396 kts | 139° |
| 2026-04-30 07:14 | 27.25042 | 84.89020 | 16928 ft | 396 kts | 139° |
| 2026-04-30 07:15 | 27.23049 | 84.91143 | 16431 ft | 395 kts | 139° |
| 2026-04-30 07:15 | 27.21073 | 84.93258 | 16005 ft | 391 kts | 137° |
| 2026-04-30 07:15 | 27.19492 | 84.95738 | 15573 ft | 392 kts | 115° |
| 2026-04-30 07:15 | 27.18831 | 84.98677 | 15178 ft | 389 kts | 92° |
| 2026-04-30 07:16 | 27.19221 | 85.01652 | 14710 ft | 386 kts | 68° |
| 2026-04-30 07:16 | 27.20562 | 85.04210 | 14352 ft | 377 kts | 50° |
| 2026-04-30 07:16 | 27.22166 | 85.06502 | 14069 ft | 370 kts | 50° |
| 2026-04-30 07:16 | 27.23742 | 85.08759 | 13794 ft | 364 kts | 50° |
| 2026-04-30 07:17 | 27.25290 | 85.10983 | 13492 ft | 358 kts | 50° |
| 2026-04-30 07:17 | 27.26814 | 85.13180 | 13168 ft | 354 kts | 50° |
| 2026-04-30 07:17 | 27.29999 | 85.17308 | 12667 ft | 347 kts | 37° |
| 2026-04-30 07:18 | 27.31989 | 85.18796 | 12414 ft | 342 kts | 25° |
| 2026-04-30 07:18 | 27.34166 | 85.19838 | 12164 ft | 340 kts | 19° |
| 2026-04-30 07:18 | 27.36359 | 85.20826 | 11933 ft | 339 kts | 19° |
| 2026-04-30 07:18 | 27.38540 | 85.21815 | 11696 ft | 337 kts | 20° |
| 2026-04-30 07:19 | 27.40708 | 85.22805 | 11474 ft | 336 kts | 20° |
| 2026-04-30 07:19 | 27.42879 | 85.23793 | 10897 ft | 341 kts | 20° |
| 2026-04-30 07:19 | 27.45068 | 85.24778 | 10490 ft | 330 kts | 20° |
| 2026-04-30 07:19 | 27.47169 | 85.25719 | 10042 ft | 318 kts | 20° |
| 2026-04-30 07:20 | 27.49160 | 85.26612 | 9774 ft | 300 kts | 20° |
| 2026-04-30 07:20 | 27.51039 | 85.27461 | 9333 ft | 279 kts | 20° |
| 2026-04-30 07:20 | 27.52773 | 85.28243 | 8989 ft | 258 kts | 20° |
| 2026-04-30 07:20 | 27.54382 | 85.28969 | 8554 ft | 243 kts | 20° |
| 2026-04-30 07:21 | 27.55923 | 85.29666 | 7964 ft | 235 kts | 21° |
| 2026-04-30 07:21 | 27.57422 | 85.30343 | 7414 ft | 229 kts | 21° |
| 2026-04-30 07:21 | 27.58874 | 85.31001 | 6922 ft | 221 kts | 22° |
| 2026-04-30 07:21 | 27.60268 | 85.31635 | 6440 ft | 212 kts | 23° |
| 2026-04-30 07:22 | 27.62900 | 85.32830 | 5451 ft | 192 kts | 22° |
| 2026-04-30 07:22 | 27.64087 | 85.33378 | 5102 ft | 177 kts | 22° |
| 2026-04-30 07:22 | 27.65166 | 85.33889 | 5026 ft | 163 kts | 21° |
| 2026-04-30 07:23 | 27.66205 | 85.34360 | 4841 ft | 159 kts | 20° |
| 2026-04-30 07:23 | 27.67226 | 85.34809 | 4580 ft | 156 kts | 20° |
| 2026-04-30 07:23 | 27.68232 | 85.35266 | 4465 ft | 156 kts | 21° |
| 2026-04-30 07:23 | 27.69228 | 85.35717 | 4394 ft | 145 kts | 22° |
| 2026-04-30 07:24 | 27.69990 | 85.36063 | 4394 ft | 76 kts | 21° |
| 2026-04-30 07:24 | 27.70168 | 85.36109 | 4398 ft | 11 kts | 339° |
| 2026-04-30 07:24 | 27.70185 | 85.36041 | 4398 ft | 10 kts | 231° |
| 2026-04-30 07:24 | 27.70128 | 85.36009 | 4397 ft | 9 kts | 201° |
| 2026-04-30 07:25 | 27.70078 | 85.35986 | 4397 ft | 7 kts | 202° |
| 2026-04-30 07:25 | 27.70037 | 85.35968 | 4397 ft | 5 kts | 202° |
| 2026-04-30 07:25 | 27.70007 | 85.35954 | 4397 ft | 4 kts | 202° |
| 2026-04-30 07:25 | 27.69989 | 85.35945 | 4397 ft | 2 kts | 202° |
| 2026-04-30 07:26 | 27.69967 | 85.35935 | 4397 ft | 5 kts | 202° |
| 2026-04-30 07:26 | 27.69928 | 85.35918 | 4397 ft | 8 kts | 201° |
| 2026-04-30 07:26 | 27.69916 | 85.35871 | 4397 ft | 6 kts | 283° |
| 2026-04-30 07:26 | 27.69928 | 85.35836 | 4398 ft | 4 kts | 291° |
| 2026-04-30 07:27 | 27.69935 | 85.35817 | 4398 ft | 2 kts | 291° |
| 2026-04-30 07:27 | 27.69937 | 85.35812 | 4398 ft | 0 kts | 292° |